Time;durP1;ratioP1;P1;durP2;ratioP2;P2;SDS_P1;SDS_P2;PMS_P1;PMS_P2;Temp;Humidity;BMP_temperature;BMP_pressure;BME280_temperature;BME280_humidity;BME280_pressure;Samples;Min_cycle;Max_cycle;Signal;HPM_P1;HPM_P2
2022/01/30 00:00:53;;;;;;;14.75;8.63;;;-0.80;99.90;;;-0.81;100.00;96652.75;5062295;27;130538;-70
2022/01/30 00:03:22;;;;;;;13.38;8.43;;;-0.80;99.90;;;-0.81;100.00;96647.44;5049378;27;129806;-70
2022/01/30 00:05:50;;;;;;;13.68;8.35;;;-0.80;99.90;;;-0.79;100.00;96631.94;5055164;27;119370;-70
2022/01/30 00:08:21;;;;;;;14.77;9.00;;;-0.70;99.90;;;-0.73;100.00;96624.59;5056346;27;115598;-70
2022/01/30 00:10:55;;;;;;;13.20;8.73;;;-0.70;99.90;;;-0.70;100.00;96623.19;5057264;27;130322;-70
2022/01/30 00:13:26;;;;;;;14.05;8.43;;;-0.70;99.90;;;-0.70;100.00;96607.19;5059225;27;129793;-71
2022/01/30 00:15:55;;;;;;;13.25;8.35;;;-0.70;99.90;;;-0.74;100.00;96596.38;5045712;27;118680;-70
2022/01/30 00:18:41;;;;;;;12.20;8.10;;;-0.70;99.90;;;-0.70;100.00;96600.00;5057244;27;115763;-71
2022/01/30 00:21:15;;;;;;;15.35;8.20;;;-0.60;99.90;;;-0.66;100.00;96582.31;5054349;27;129920;-71
2022/01/30 00:23:50;;;;;;;14.48;8.50;;;-0.70;99.90;;;-0.63;100.00;96576.34;5059573;27;129529;-71
2022/01/30 00:26:20;;;;;;;14.13;8.60;;;-0.60;99.90;;;-0.63;100.00;96564.94;5053373;27;119447;-70
2022/01/30 00:28:48;;;;;;;11.75;7.60;;;-0.60;99.90;;;-0.60;100.00;96561.66;5054436;27;114943;-70
2022/01/30 00:31:21;;;;;;;14.07;8.15;;;-0.60;99.90;;;-0.63;100.00;96559.59;5051834;27;129301;-70
2022/01/30 00:33:50;;;;;;;13.73;8.73;;;-0.60;99.90;;;-0.62;100.00;96550.53;5041978;27;129948;-70
2022/01/30 00:36:20;;;;;;;14.70;8.43;;;-0.60;99.90;;;-0.59;100.00;96539.25;5049779;27;119501;-70
2022/01/30 00:38:50;;;;;;;13.05;8.52;;;-0.60;99.90;;;-0.55;100.00;96527.66;5056858;27;114945;-70
2022/01/30 00:41:21;;;;;;;14.02;8.02;;;-0.50;99.90;;;-0.55;100.00;96530.31;5042665;27;129842;-71
2022/01/30 00:43:49;;;;;;;14.32;8.60;;;-0.50;99.90;;;-0.47;100.00;96520.75;5079432;27;129349;-70
2022/01/30 00:46:18;;;;;;;14.13;8.35;;;-0.50;99.90;;;-0.47;100.00;96502.09;5052276;27;119574;-70
2022/01/30 00:48:47;;;;;;;13.07;8.77;;;-0.50;99.90;;;-0.46;100.00;96489.56;5055229;27;114788;-70
2022/01/30 00:51:17;;;;;;;11.85;7.75;;;-0.50;99.90;;;-0.42;100.00;96487.84;5049588;27;129596;-71
2022/01/30 00:53:46;;;;;;;13.70;7.53;;;-0.50;99.90;;;-0.41;100.00;96470.75;5051563;27;130314;-70
2022/01/30 00:56:16;;;;;;;13.38;8.10;;;-0.40;99.90;;;-0.40;100.00;96478.44;5035886;27;117901;-70
2022/01/30 00:58:45;;;;;;;19.48;7.15;;;-0.40;99.90;;;-0.40;100.00;96483.00;5049012;27;114795;-70
2022/01/30 01:01:13;;;;;;;14.02;7.90;;;-0.40;99.90;;;-0.41;100.00;96460.88;5074759;27;129999;-71
2022/01/30 01:03:41;;;;;;;12.70;7.82;;;-0.40;99.90;;;-0.37;100.00;96445.06;5058832;27;130094;-70
2022/01/30 01:06:10;;;;;;;12.02;7.28;;;-0.40;99.90;;;-0.31;100.00;96443.00;5050466;27;118693;-71
2022/01/30 01:08:49;;;;;;;11.75;7.25;;;-0.30;99.90;;;-0.30;100.00;96433.91;5040945;27;114439;-71
2022/01/30 01:11:52;;;;;;;12.07;7.80;;;-0.30;99.90;;;-0.34;100.00;96432.97;5057959;27;130012;-71
2022/01/30 01:25:22;;;;;;;10.98;6.65;;;-0.20;99.90;;;-0.17;100.00;96378.88;5042358;27;130033;-69
2022/01/30 01:27:53;;;;;;;11.15;7.07;;;-0.20;99.90;;;-0.10;100.00;96379.94;5048887;27;118703;-71
2022/01/30 01:30:22;;;;;;;11.77;7.07;;;-0.20;99.90;;;-0.08;100.00;96367.09;5056000;27;114706;-69
2022/01/30 01:32:50;;;;;;;12.35;6.75;;;-0.10;99.90;;;0.01;100.00;96360.94;5054009;27;130258;-70
2022/01/30 01:35:20;;;;;;;10.40;6.90;;;-0.10;99.90;;;0.04;100.00;96330.97;5076340;27;129965;-70
2022/01/30 01:37:53;;;;;;;10.07;7.03;;;-0.10;99.90;;;0.09;100.00;96328.91;5043324;27;118736;-70
2022/01/30 01:40:23;;;;;;;11.10;7.30;;;0.00;99.90;;;0.10;100.00;96319.03;5048635;27;115059;-69
2022/01/30 01:42:54;;;;;;;13.07;7.60;;;0.00;99.90;;;0.11;100.00;96315.25;5060557;27;129696;-69
2022/01/30 01:45:24;;;;;;;10.77;7.15;;;0.00;99.90;;;0.16;100.00;96301.75;5060881;27;129641;-70
2022/01/30 01:47:53;;;;;;;10.98;7.43;;;0.00;99.90;;;0.16;100.00;96302.53;5053202;27;118774;-69
2022/01/30 01:50:38;;;;;;;10.10;7.28;;;0.00;99.90;;;0.14;100.00;96294.06;5051486;27;115162;-70
2022/01/30 01:53:11;;;;;;;11.27;7.45;;;0.10;99.90;;;0.22;100.00;96294.34;5046658;27;130469;-69
2022/01/30 01:55:42;;;;;;;12.73;8.18;;;0.10;99.90;;;0.21;100.00;96282.88;5047398;27;130182;-69
2022/01/30 01:58:20;;;;;;;14.85;8.05;;;0.10;99.90;;;0.26;100.00;96258.69;5049285;27;118501;-69
2022/01/30 02:01:05;;;;;;;11.27;7.28;;;0.10;99.90;;;0.23;100.00;96250.56;5056485;27;115989;-69
2022/01/30 02:03:37;;;;;;;12.48;7.88;;;0.20;99.90;;;0.29;100.00;96251.94;5076276;27;128337;-70
2022/01/30 02:06:08;;;;;;;12.68;8.15;;;0.20;99.90;;;0.28;100.00;96240.50;5050166;27;129760;-70
2022/01/30 02:08:40;;;;;;;12.57;7.57;;;0.20;99.90;;;0.32;100.00;96246.72;5043556;27;118814;-70
2022/01/30 02:11:12;;;;;;;11.75;7.13;;;0.20;99.90;;;0.31;100.00;96223.84;5053744;27;115171;-69
2022/01/30 02:14:02;;;;;;;11.00;6.82;;;0.20;99.90;;;0.26;100.00;96216.00;5064896;27;129159;-69
2022/01/30 02:25:06;;;;;;;9.82;6.82;;;0.30;99.90;;;0.44;100.00;96195.34;5046275;27;129988;-70
2022/01/30 02:27:37;;;;;;;12.35;7.40;;;0.30;99.90;;;0.46;100.00;96184.34;5053759;27;129703;-70
2022/01/30 02:30:10;;;;;;;11.20;6.65;;;0.30;99.90;;;0.48;100.00;96174.13;5070297;27;118513;-70
2022/01/30 02:32:39;;;;;;;11.45;7.10;;;0.30;99.90;;;0.43;100.00;96166.31;5048262;27;116362;-70
2022/01/30 02:35:08;;;;;;;11.73;7.28;;;0.30;99.90;;;0.42;100.00;96172.75;5040814;27;130088;-70
2022/01/30 02:37:39;;;;;;;10.18;6.68;;;0.30;99.90;;;0.49;100.00;96159.69;5043991;27;128536;-70
2022/01/30 02:40:12;;;;;;;10.73;7.03;;;0.30;99.90;;;0.56;100.00;96159.91;5039358;27;117224;-70
2022/01/30 02:42:47;;;;;;;11.32;7.55;;;0.30;99.90;;;0.54;100.00;96156.78;5050912;27;114605;-70
2022/01/30 02:45:18;;;;;;;11.00;6.80;;;0.40;99.90;;;0.57;100.00;96156.16;5041247;27;129976;-70
2022/01/30 02:47:57;;;;;;;11.13;7.03;;;0.30;99.90;;;0.59;100.00;96161.91;5052501;27;129623;-70
2022/01/30 02:50:36;;;;;;;11.55;6.88;;;0.30;99.90;;;0.58;100.00;96136.38;5049065;27;118654;-70
2022/01/30 02:53:09;;;;;;;10.32;6.18;;;0.40;99.90;;;0.57;100.00;96134.03;5058265;27;116290;-69
2022/01/30 02:55:38;;;;;;;11.65;7.03;;;0.40;99.90;;;0.59;100.00;96143.25;5049300;27;129677;-70
2022/01/30 02:58:06;;;;;;;10.55;6.72;;;0.40;99.90;;;0.69;100.00;96137.50;5054092;27;130048;-70
2022/01/30 03:00:35;;;;;;;12.95;7.63;;;0.40;99.90;;;0.67;100.00;96123.72;5030650;27;117657;-70
2022/01/30 03:03:04;;;;;;;9.93;6.07;;;0.40;99.90;;;0.60;100.00;96110.13;5048080;27;116323;-70
2022/01/30 03:05:32;;;;;;;11.45;6.20;;;0.40;99.90;;;0.59;100.00;96113.88;5049654;27;130258;-70
2022/01/30 03:08:01;;;;;;;10.85;6.22;;;0.40;99.90;;;0.53;100.00;96104.53;5072171;27;129258;-70
2022/01/30 03:10:31;;;;;;;11.15;6.22;;;0.40;99.90;;;0.66;100.00;96111.47;5068239;27;118284;-70
2022/01/30 03:12:59;;;;;;;10.77;6.80;;;0.40;99.90;;;0.67;100.00;96090.91;5060986;27;115360;-70
2022/01/30 03:15:28;;;;;;;12.50;6.95;;;0.40;99.90;;;0.74;100.00;96098.38;5050713;27;130028;-70
2022/01/30 03:17:57;;;;;;;11.50;6.22;;;0.40;99.90;;;0.74;100.00;96085.81;5065862;27;129428;-70
2022/01/30 03:20:25;;;;;;;10.45;6.07;;;0.50;99.90;;;0.71;100.00;96089.91;5056780;27;118742;-70
2022/01/30 03:22:54;;;;;;;11.30;6.22;;;0.50;99.90;;;0.69;100.00;96083.34;5053993;27;115315;-70
2022/01/30 03:25:25;;;;;;;11.88;6.10;;;0.50;99.90;;;0.78;100.00;96085.91;5059634;27;130311;-71
2022/01/30 03:27:58;;;;;;;9.95;6.10;;;0.50;99.90;;;0.87;100.00;96089.28;5062098;27;130600;-70
2022/01/30 03:30:32;;;;;;;8.85;5.50;;;0.50;99.90;;;0.82;100.00;96086.81;5069037;27;119349;-70
2022/01/30 03:33:13;;;;;;;11.77;6.65;;;0.50;99.90;;;0.81;100.00;96087.94;5050404;27;115036;-70
2022/01/30 03:35:41;;;;;;;10.38;6.18;;;0.60;99.90;;;0.75;100.00;96091.91;5051907;27;129963;-71
2022/01/30 03:38:14;;;;;;;11.13;6.70;;;0.60;99.90;;;0.67;100.00;96081.03;5069466;27;129373;-70
2022/01/30 03:40:43;;;;;;;10.25;6.32;;;0.60;99.90;;;0.70;100.00;96075.03;5053258;27;118028;-71
2022/01/30 03:43:13;;;;;;;13.32;6.68;;;0.60;99.90;;;0.59;100.00;96089.88;5067660;27;115719;-70
2022/01/30 03:45:41;;;;;;;11.35;5.78;;;0.60;99.90;;;0.75;100.00;96081.25;5050855;27;129581;-70
2022/01/30 03:48:12;;;;;;;11.02;6.90;;;0.60;99.90;;;0.71;100.00;96084.56;5067580;27;129424;-71
2022/01/30 03:50:54;;;;;;;11.07;6.32;;;0.70;99.90;;;0.80;100.00;96073.03;5052215;27;118983;-71
2022/01/30 03:53:23;;;;;;;10.77;6.93;;;0.70;99.90;;;0.88;100.00;96074.81;5059897;27;115373;-71
2022/01/30 03:55:52;;;;;;;11.27;6.75;;;0.70;99.90;;;0.94;100.00;96078.84;5062851;27;129766;-71
2022/01/30 03:58:29;;;;;;;11.73;6.47;;;0.80;99.90;;;0.89;100.00;96071.06;5051917;27;128487;-70
2022/01/30 04:00:59;;;;;;;11.88;6.40;;;0.80;99.90;;;0.95;100.00;96059.03;5068993;27;118384;-71
2022/01/30 04:03:28;;;;;;;12.23;7.45;;;0.80;99.90;;;0.91;100.00;96068.81;5061142;27;115965;-71
2022/01/30 04:05:58;;;;;;;12.27;7.05;;;0.80;99.90;;;1.01;100.00;96062.25;5071343;27;130422;-71
2022/01/30 04:08:28;;;;;;;11.52;6.88;;;0.90;99.90;;;1.04;100.00;96062.38;5051741;27;129878;-71
2022/01/30 04:11:04;;;;;;;13.32;7.53;;;0.90;99.90;;;0.92;100.00;96058.91;5051756;27;118562;-71
2022/01/30 04:13:57;;;;;;;12.95;7.68;;;0.90;99.90;;;0.95;100.00;96053.69;5040951;27;115234;-71
2022/01/30 04:16:42;;;;;;;13.70;8.05;;;0.90;99.90;;;0.94;100.00;96062.81;5047224;27;129764;-71
2022/01/30 04:19:32;;;;;;;13.75;8.02;;;0.90;99.90;;;0.94;100.00;96046.78;5044868;27;129035;-71
2022/01/30 04:22:23;;;;;;;16.20;8.07;;;1.00;99.90;;;1.04;100.00;96048.25;5039773;27;119835;-72
2022/01/30 04:25:12;;;;;;;11.73;7.80;;;1.00;99.90;;;1.06;100.00;96052.16;5050557;27;113733;-71
2022/01/30 04:28:19;;;;;;;12.65;7.28;;;1.10;99.90;;;1.14;100.00;96041.66;5028973;27;129826;-72
2022/01/30 04:31:06;;;;;;;14.88;8.25;;;1.10;99.90;;;1.06;100.00;96046.81;5043516;27;129487;-72
2022/01/30 04:33:54;;;;;;;13.30;8.32;;;1.10;99.90;;;1.26;100.00;96036.31;5054400;27;118580;-71
2022/01/30 04:36:38;;;;;;;13.57;8.00;;;1.10;99.90;;;1.15;100.00;96040.56;5052817;27;115947;-71
2022/01/30 04:40:11;;;;;;;12.40;7.50;;;1.10;99.90;;;1.14;100.00;96036.31;5051959;27;129029;-71
2022/01/30 04:55:53;;;;;;;11.35;6.57;;;1.10;99.90;;;1.22;100.00;96030.09;5040562;27;130341;-71
2022/01/30 04:58:32;;;;;;;10.38;6.10;;;1.10;99.90;;;1.13;100.00;96026.78;5058739;27;118524;-71
2022/01/30 05:01:22;;;;;;;11.30;5.93;;;1.10;99.90;;;1.21;100.00;96023.97;5058049;27;114028;-71
2022/01/30 05:04:23;;;;;;;10.15;5.95;;;1.10;99.90;;;1.17;100.00;96027.66;5034518;27;129988;-71
2022/01/30 05:07:33;;;;;;;12.02;6.05;;;1.10;99.90;;;1.15;100.00;96019.19;4979540;28;130233;-73
2022/01/30 05:10:03;;;;;;;10.43;6.07;;;1.10;99.90;;;1.19;100.00;96014.75;4977862;28;118724;-72
2022/01/30 05:12:44;;;;;;;10.07;6.15;;;1.10;99.90;;;1.20;100.00;96018.97;5020861;27;115845;-72
2022/01/30 05:15:31;;;;;;;11.35;6.00;;;1.10;99.90;;;1.17;100.00;96016.97;5070224;27;129228;-73
2022/01/30 05:18:21;;;;;;;10.60;5.72;;;1.10;99.90;;;1.18;100.00;96019.28;5046908;27;130178;-73
2022/01/30 05:21:20;;;;;;;12.70;6.82;;;1.10;99.90;;;1.13;100.00;96016.84;4991192;27;118414;-73
2022/01/30 05:23:58;;;;;;;16.75;7.85;;;1.20;99.90;;;1.18;100.00;96013.19;5050442;27;115107;-72
2022/01/30 05:26:41;;;;;;;15.57;7.03;;;1.20;99.90;;;1.33;100.00;96009.06;5041267;27;129707;-72
2022/01/30 05:29:29;;;;;;;12.75;6.70;;;1.20;99.90;;;1.33;100.00;96009.84;5047977;27;129655;-73
2022/01/30 05:32:27;;;;;;;11.38;5.90;;;1.20;99.90;;;1.25;100.00;96006.16;5013869;27;119163;-73
2022/01/30 05:35:37;;;;;;;13.25;5.70;;;1.20;99.90;;;1.33;100.00;96009.84;5035072;27;114274;-73
2022/01/30 05:38:24;;;;;;;16.27;6.03;;;1.20;99.90;;;1.34;100.00;96016.75;5050580;27;130211;-73
2022/01/30 05:41:12;;;;;;;14.10;6.30;;;1.30;99.90;;;1.33;100.00;96020.53;5051874;27;130585;-72
2022/01/30 05:43:54;;;;;;;12.50;6.53;;;1.30;99.90;;;1.50;100.00;96016.06;5049178;27;118860;-72
2022/01/30 05:46:45;;;;;;;10.52;5.55;;;1.30;99.90;;;1.39;100.00;96013.84;5059194;27;114587;-71
2022/01/30 05:49:45;;;;;;;17.23;5.75;;;1.30;99.90;;;1.52;100.00;96016.47;5032935;27;128373;-73
2022/01/30 05:52:41;;;;;;;13.25;5.10;;;1.30;99.90;;;1.56;100.00;96014.72;5040429;27;129962;-70
2022/01/30 05:55:30;;;;;;;10.05;4.78;;;1.30;99.90;;;1.55;100.00;96021.16;5066443;27;118702;-71
2022/01/30 05:57:59;;;;;;;12.75;5.00;;;1.40;99.90;;;1.50;100.00;96002.69;5042486;27;114081;-68
2022/01/30 06:00:39;;;;;;;13.98;4.90;;;1.30;99.90;;;1.62;100.00;96013.31;5057298;27;129154;-69
2022/01/30 06:03:08;;;;;;;13.10;5.10;;;1.40;99.90;;;1.73;100.00;96011.75;5044467;27;128517;-69
2022/01/30 06:05:38;;;;;;;13.85;5.43;;;1.40;99.90;;;1.58;100.00;96007.88;5049804;27;118813;-69
2022/01/30 06:08:13;;;;;;;10.60;4.10;;;1.50;99.90;;;1.78;100.00;96008.84;5055062;27;115055;-69
2022/01/30 06:10:42;;;;;;;14.55;4.30;;;1.50;99.90;;;1.77;100.00;96007.28;5061333;27;130006;-69
2022/01/30 06:13:11;;;;;;;10.52;4.82;;;1.50;99.90;;;1.62;100.00;96013.31;5051593;27;129745;-69
2022/01/30 06:15:40;;;;;;;15.77;4.80;;;1.50;99.90;;;1.75;100.00;96009.50;5060863;27;118534;-70
2022/01/30 06:18:18;;;;;;;12.65;5.38;;;1.50;99.90;;;1.66;100.00;96002.75;5049031;27;115098;-70
2022/01/30 06:21:06;;;;;;;14.95;4.82;;;1.60;99.90;;;1.75;100.00;96006.84;5048386;27;130565;-69
2022/01/30 06:23:51;;;;;;;15.05;4.65;;;1.60;99.90;;;1.73;100.00;96001.06;5054943;27;127951;-69
2022/01/30 06:26:38;;;;;;;10.73;4.78;;;1.60;99.90;;;1.87;100.00;96013.25;5060512;27;117506;-68
2022/01/30 06:29:22;;;;;;;12.90;3.85;;;1.70;99.90;;;1.87;100.00;96010.59;5051900;27;114662;-68
2022/01/30 06:32:10;;;;;;;10.73;4.45;;;1.70;99.90;;;2.03;100.00;95999.97;5054969;27;129974;-69
2022/01/30 06:34:57;;;;;;;12.68;4.25;;;1.80;99.90;;;1.96;100.00;96008.56;5056004;27;129646;-69
2022/01/30 06:37:29;;;;;;;9.43;4.30;;;1.80;99.90;;;2.17;100.00;96003.00;5056044;27;118955;-68
2022/01/30 06:40:17;;;;;;;11.40;3.70;;;1.80;99.90;;;2.14;100.00;96009.81;5051057;27;115055;-69
2022/01/30 06:42:55;;;;;;;11.85;3.95;;;1.80;99.90;;;2.39;100.00;96004.34;5054675;27;130093;-69
2022/01/30 06:45:43;;;;;;;11.32;4.47;;;1.90;99.90;;;2.37;100.00;96006.59;5054139;27;130965;-69
2022/01/30 06:48:30;;;;;;;12.38;3.60;;;1.90;99.90;;;2.48;100.00;96007.63;5039950;27;119503;-69
2022/01/30 06:51:18;;;;;;;12.77;4.25;;;1.90;99.90;;;2.50;100.00;96005.38;5057135;27;115524;-70
2022/01/30 06:54:05;;;;;;;11.98;3.53;;;1.90;99.90;;;2.56;100.00;96015.88;5056773;27;130319;-70
2022/01/30 06:57:14;;;;;;;15.77;3.63;;;1.90;99.90;;;2.46;100.00;96009.88;5037926;27;129816;-69
2022/01/30 07:00:01;;;;;;;11.95;3.92;;;1.90;99.90;;;2.54;100.00;96021.56;5035321;27;118915;-69
2022/01/30 07:02:48;;;;;;;15.13;3.45;;;1.90;99.90;;;2.45;100.00;96019.03;5043242;27;115919;-71
2022/01/30 07:05:30;;;;;;;10.48;3.38;;;2.00;99.90;;;2.66;100.00;96024.13;5055081;27;130275;-70
2022/01/30 07:08:10;;;;;;;10.65;3.22;;;2.10;99.90;;;2.59;100.00;96023.19;5072315;27;130523;-70
2022/01/30 07:10:39;;;;;;;13.48;3.50;;;2.10;99.90;;;2.69;100.00;96022.69;5052559;27;118997;-71
2022/01/30 07:13:11;;;;;;;9.93;3.00;;;2.00;99.90;;;2.74;100.00;96019.75;5055017;27;114916;-70
2022/01/30 07:15:41;;;;;;;12.73;3.38;;;2.10;99.90;;;2.77;100.00;96013.69;5039878;27;130049;-70
2022/01/30 07:18:09;;;;;;;10.80;3.42;;;2.20;99.90;;;2.86;100.00;96016.97;5054454;27;129713;-70
2022/01/30 07:20:38;;;;;;;11.52;2.83;;;2.10;99.90;;;2.93;100.00;96015.59;5042565;27;119101;-70
2022/01/30 07:23:06;;;;;;;14.00;3.38;;;2.20;99.90;;;3.13;100.00;96019.13;5076261;27;115715;-70
2022/01/30 07:25:35;;;;;;;12.35;2.97;;;2.30;99.90;;;2.96;99.79;96012.22;5041292;27;128504;-70
2022/01/30 07:28:04;;;;;;;12.68;2.78;;;2.30;99.90;;;3.14;98.85;96018.78;5053616;27;129396;-70
2022/01/30 07:30:36;;;;;;;13.63;3.40;;;2.30;99.90;;;3.22;99.05;96007.09;5059591;27;118171;-70
2022/01/30 07:33:05;;;;;;;16.95;3.38;;;2.40;99.90;;;3.20;97.50;96008.59;5057562;27;115477;-70
2022/01/30 07:35:36;;;;;;;10.63;2.72;;;2.40;99.90;;;3.22;98.35;96007.09;5056751;27;130259;-70
2022/01/30 07:38:05;;;;;;;11.45;2.70;;;2.40;99.90;;;3.30;98.59;96013.38;5053824;27;130022;-71
2022/01/30 07:40:34;;;;;;;9.80;2.63;;;2.50;99.90;;;3.42;96.49;96009.84;5047441;27;118770;-70
2022/01/30 07:43:03;;;;;;;11.82;3.13;;;2.50;99.90;;;3.62;95.72;96017.91;5048449;27;114842;-70
2022/01/30 07:45:35;;;;;;;15.27;2.95;;;2.60;99.90;;;3.54;96.01;96017.75;5050336;27;130982;-70
2022/01/30 07:48:05;;;;;;;14.25;3.42;;;2.60;99.90;;;3.55;96.23;96019.31;5050420;27;129791;-71
2022/01/30 07:50:33;;;;;;;11.90;2.97;;;2.50;99.90;;;3.70;94.53;96020.38;5053815;27;119705;-70
2022/01/30 07:53:02;;;;;;;14.02;3.00;;;2.60;99.90;;;3.57;92.53;96017.06;5053708;27;115263;-70
2022/01/30 07:55:30;;;;;;;9.07;2.60;;;2.50;99.90;;;3.41;95.60;96024.34;5043465;27;129738;-70
2022/01/30 07:57:59;;;;;;;13.90;3.25;;;2.60;99.90;;;3.47;95.66;96027.53;5052473;27;129791;-70
2022/01/30 08:00:28;;;;;;;15.23;2.53;;;2.60;99.90;;;3.60;94.98;96031.69;5057697;27;119376;-70
2022/01/30 08:02:58;;;;;;;11.75;3.10;;;2.60;99.90;;;3.47;95.03;96032.91;5052732;27;115109;-70
2022/01/30 08:05:27;;;;;;;13.70;2.60;;;2.60;99.90;;;3.33;96.07;96033.38;5053879;27;130011;-71
2022/01/30 08:07:55;;;;;;;13.52;3.35;;;2.60;99.90;;;3.41;94.59;96035.88;5052955;27;129446;-71
2022/01/30 08:10:24;;;;;;;17.27;3.15;;;2.60;99.90;;;3.68;93.51;96038.75;5060498;27;118650;-71
2022/01/30 08:12:52;;;;;;;13.15;2.95;;;2.70;99.40;;;3.77;90.85;96036.63;5057120;27;115882;-70
2022/01/30 08:15:22;;;;;;;11.40;2.85;;;2.70;96.60;;;3.56;92.77;96041.53;5048848;27;129699;-70
2022/01/30 08:17:51;;;;;;;10.25;2.50;;;2.70;92.90;;;3.46;91.53;96032.16;5053187;27;129601;-69
2022/01/30 08:20:24;;;;;;;10.82;2.22;;;2.70;87.60;;;3.71;91.16;96039.94;5043897;27;118485;-70
2022/01/30 08:22:55;;;;;;;11.00;2.38;;;2.70;89.50;;;3.84;90.69;96046.72;5047208;27;115308;-70
2022/01/30 08:25:26;;;;;;;9.82;2.67;;;2.80;78.00;;;4.18;88.99;96054.31;5051787;27;130299;-70
2022/01/30 08:27:56;;;;;;;10.55;2.90;;;3.00;86.70;;;4.54;88.08;96045.03;5054074;27;129425;-71
2022/01/30 08:30:27;;;;;;;9.85;2.45;;;3.20;77.10;;;4.44;87.34;96056.31;5042791;27;118978;-71
2022/01/30 08:32:58;;;;;;;11.82;3.08;;;3.20;76.40;;;4.54;88.37;96060.38;5047827;27;116221;-71
2022/01/30 08:35:28;;;;;;;7.70;2.88;;;3.20;83.20;;;4.38;87.40;96057.75;5053272;27;129865;-71
2022/01/30 08:37:58;;;;;;;9.43;2.42;;;3.10;79.00;;;4.33;86.24;96050.75;5053744;27;129930;-70
2022/01/30 08:40:27;;;;;;;12.02;4.63;;;3.10;61.40;;;4.59;85.06;96052.78;5050597;27;119014;-70
2022/01/30 08:42:56;;;;;;;11.55;2.90;;;3.20;55.10;;;4.71;83.50;96059.13;5053462;27;115128;-70
2022/01/30 08:45:25;;;;;;;11.82;2.95;;;3.30;48.00;;;4.82;82.81;96054.72;5059402;27;130006;-70
2022/01/30 08:47:54;;;;;;;11.88;3.50;;;3.40;31.30;;;5.01;84.12;96062.72;5059653;27;129729;-70
2022/01/30 08:50:24;;;;;;;12.73;3.22;;;3.60;39.50;;;5.20;82.08;96069.16;5052309;27;118278;-70
2022/01/30 08:52:54;;;;;;;11.25;2.70;;;3.70;29.50;;;5.17;81.94;96067.97;5054759;27;114947;-70
2022/01/30 08:55:25;;;;;;;9.77;2.70;;;3.60;23.00;;;4.92;81.13;96064.84;5064369;27;131569;-70
2022/01/30 08:57:55;;;;;;;12.27;3.28;;;3.50;19.10;;;5.18;79.81;96066.81;5059475;27;130616;-71
2022/01/30 09:00:23;;;;;;;12.98;3.35;;;3.50;29.80;;;4.74;81.55;96066.47;5058281;27;118744;-70
2022/01/30 09:02:52;;;;;;;9.35;2.85;;;3.40;20.30;;;4.54;82.08;96077.25;5050701;27;115744;-70
2022/01/30 09:05:24;;;;;;;12.48;3.60;;;3.30;23.20;;;4.46;82.60;96079.00;5051070;27;130357;-71
2022/01/30 09:07:55;;;;;;;12.23;4.07;;;3.20;24.90;;;4.53;81.88;96091.78;5053726;27;129751;-70
2022/01/30 09:10:24;;;;;;;12.90;3.72;;;3.20;23.60;;;4.73;81.36;96084.50;5061763;27;118907;-70
2022/01/30 09:12:53;;;;;;;11.30;3.22;;;3.30;19.60;;;5.74;77.72;96086.88;5061432;27;114486;-70
2022/01/30 09:15:22;;;;;;;15.55;4.07;;;3.60;30.20;;;6.01;77.10;96084.19;5060925;27;130680;-70
2022/01/30 09:17:53;;;;;;;10.00;3.03;;;3.80;18.70;;;6.01;77.16;96084.19;5037503;27;130597;-71
2022/01/30 09:20:22;;;;;;;19.17;3.67;;;3.70;20.10;;;6.29;76.15;96083.00;5049542;27;118695;-71
2022/01/30 09:22:53;;;;;;;13.27;3.40;;;3.90;34.70;;;5.88;77.07;96085.53;5048135;27;115109;-71
2022/01/30 09:25:23;;;;;;;12.57;3.25;;;3.90;24.80;;;6.29;76.06;96088.38;5043736;27;129491;-71
2022/01/30 09:27:52;;;;;;;15.85;3.08;;;4.10;14.40;;;6.34;75.96;96085.38;5051625;27;129788;-70
2022/01/30 09:30:21;;;;;;;13.50;3.90;;;4.20;15.90;;;5.68;76.08;96093.72;5051442;27;119012;-70
2022/01/30 09:32:51;;;;;;;23.73;10.50;;;3.90;10.10;;;5.40;78.61;96080.63;5059440;27;116272;-70
2022/01/30 09:35:20;;;;;;;35.72;16.75;;;3.70;17.40;;;4.94;81.36;96081.41;5049051;27;130342;-70
2022/01/30 09:37:50;;;;;;;15.13;3.33;;;3.50;17.90;;;5.01;81.53;96088.81;5076164;27;129793;-71
2022/01/30 09:40:21;;;;;;;14.50;4.40;;;3.60;26.80;;;5.51;80.27;96078.84;5051867;27;118985;-71
2022/01/30 09:42:51;;;;;;;16.17;4.35;;;3.70;40.90;;;5.12;78.70;96062.13;5050836;27;114024;-70
2022/01/30 09:45:22;;;;;;;12.30;3.10;;;3.50;18.60;;;5.39;79.57;96069.09;5049553;27;129801;-71
2022/01/30 09:47:51;;;;;;;15.50;3.78;;;3.60;34.90;;;5.37;78.21;96074.03;5048395;27;129396;-71
2022/01/30 09:50:23;;;;;;;14.10;3.75;;;3.60;20.60;;;5.37;80.11;96073.25;5060203;27;119013;-71
2022/01/30 09:52:51;;;;;;;13.73;3.05;;;3.70;26.30;;;5.55;78.12;96068.16;5043755;27;115881;-70
2022/01/30 09:55:23;;;;;;;14.07;3.45;;;3.70;19.20;;;5.21;79.48;96070.72;5051610;27;130441;-70
2022/01/30 09:57:53;;;;;;;15.43;3.30;;;3.70;12.90;;;5.14;79.93;96059.84;5059632;27;129814;-71
2022/01/30 10:00:22;;;;;;;10.65;3.60;;;3.70;13.30;;;5.33;77.92;96072.41;5059750;27;118859;-70
2022/01/30 10:02:51;;;;;;;12.60;3.30;;;3.70;10.80;;;5.59;78.70;96068.97;5053405;27;115120;-71
2022/01/30 10:05:20;;;;;;;11.35;3.10;;;3.90;21.30;;;5.97;79.22;96067.22;5051987;27;129811;-71
2022/01/30 10:07:52;;;;;;;17.10;4.38;;;4.20;23.00;;;6.64;76.11;96071.09;5055162;27;129668;-71
2022/01/30 10:10:27;;;;;;;16.30;3.97;;;4.50;18.70;;;6.56;75.47;96064.84;5049190;27;118928;-71
2022/01/30 10:13:06;;;;;;;11.02;3.65;;;4.50;13.00;;;6.22;75.29;96070.22;5047719;27;114912;-71
2022/01/30 10:15:52;;;;;;;10.95;3.10;;;4.30;10.70;;;6.26;74.97;96075.66;5049677;27;130562;-70
2022/01/30 10:18:22;;;;;;;12.07;3.33;;;4.20;16.20;;;6.33;75.70;96074.97;5033870;27;130198;-70
2022/01/30 10:20:51;;;;;;;21.02;8.55;;;4.20;26.50;;;5.71;76.93;96071.47;5059617;27;119002;-71
2022/01/30 10:23:20;;;;;;;18.77;7.03;;;3.90;16.20;;;5.23;79.77;96073.81;5063164;27;114953;-70
2022/01/30 10:25:55;;;;;;;32.90;15.00;;;3.70;18.10;;;4.83;81.00;96067.00;5054623;27;129659;-70
2022/01/30 10:28:31;;;;;;;21.77;8.68;;;3.40;22.60;;;4.84;80.99;96068.56;5049997;27;129495;-70
2022/01/30 10:31:02;;;;;;;19.25;5.40;;;3.40;29.10;;;4.80;81.15;96086.53;5045672;27;118885;-70
2022/01/30 10:33:45;;;;;;;19.42;5.72;;;3.30;38.50;;;4.72;83.86;96071.41;5050883;27;115382;-71
2022/01/30 10:36:19;;;;;;;13.55;3.75;;;3.40;42.90;;;4.47;84.21;96069.03;5053313;27;129880;-70
2022/01/30 10:39:01;;;;;;;18.65;4.13;;;3.30;29.20;;;4.49;83.86;96064.13;5054801;27;131105;-70
2022/01/30 10:41:38;;;;;;;23.70;8.75;;;3.40;40.20;;;4.54;82.94;96071.09;5049045;27;119419;-69
2022/01/30 10:44:09;;;;;;;32.75;16.50;;;3.30;48.40;;;4.48;83.62;96070.59;5061295;27;116016;-71
2022/01/30 10:46:42;;;;;;;19.35;5.22;;;3.20;43.40;;;4.20;85.44;96060.88;5060788;27;129894;-70
2022/01/30 10:49:14;;;;;;;17.25;6.00;;;3.20;45.90;;;4.26;85.41;96061.38;5060723;27;129498;-71
2022/01/30 10:51:53;;;;;;;23.38;4.55;;;3.10;48.00;;;4.12;86.14;96061.88;5061064;27;119035;-70
2022/01/30 10:54:25;;;;;;;16.10;4.03;;;3.10;36.20;;;4.23;84.30;96062.84;5063234;27;113902;-69
2022/01/30 10:57:06;;;;;;;12.65;4.10;;;3.10;41.50;;;4.09;87.23;96054.53;5062817;27;129530;-70
2022/01/30 10:59:42;;;;;;;13.95;3.60;;;3.20;49.90;;;4.30;86.25;96063.00;5062629;27;128561;-69
2022/01/30 11:02:15;;;;;;;15.90;4.20;;;3.20;56.30;;;4.38;86.19;96052.38;5063698;27;119253;-70
2022/01/30 11:04:47;;;;;;;16.92;4.10;;;3.10;53.10;;;4.65;86.36;96051.34;5061255;27;115025;-69
2022/01/30 11:07:20;;;;;;;13.07;3.90;;;3.30;70.40;;;4.91;83.05;96047.19;5062582;27;129564;-70
2022/01/30 11:10:05;;;;;;;15.10;7.65;;;3.40;69.10;;;4.74;82.39;96053.06;5060214;27;129550;-70
2022/01/30 11:12:42;;;;;;;15.48;3.67;;;3.40;50.60;;;4.75;83.48;96049.22;5063950;27;119161;-70
2022/01/30 11:15:23;;;;;;;12.60;4.32;;;3.40;37.30;;;5.02;81.20;96050.84;5060996;27;114612;-70
2022/01/30 11:17:53;;;;;;;14.10;3.60;;;3.50;36.80;;;5.25;81.04;96044.69;5045294;27;129064;-71